Time;durP1;ratioP1;P1;durP2;ratioP2;P2;SDS_P1;SDS_P2;PMS_P1;PMS_P2;Temp;Humidity;BMP_temperature;BMP_pressure;BME280_temperature;BME280_humidity;BME280_pressure;Samples;Min_cycle;Max_cycle;Signal;HPM_P1;HPM_P2
2022/03/06 00:02:12;;;;;;;5.85;1.23;;;;;;;;;;5079214;28;20174;-73
2022/03/06 00:04:38;;;;;;;4.88;1.30;;;;;;;;;;5078307;28;20052;-76
2022/03/06 00:07:04;;;;;;;4.85;1.05;;;;;;;;;;5072824;28;20048;-72
2022/03/06 00:09:30;;;;;;;6.43;1.40;;;;;;;;;;5080016;28;20071;-73
2022/03/06 00:11:57;;;;;;;8.80;1.90;;;;;;;;;;5082045;28;20133;-74
2022/03/06 00:14:23;;;;;;;7.25;2.13;;;;;;;;;;5079895;28;20048;-72
2022/03/06 00:16:51;;;;;;;10.88;2.13;;;;;;;;;;5073389;28;20504;-72
2022/03/06 00:19:18;;;;;;;10.20;1.98;;;;;;;;;;5082799;28;20059;-72
2022/03/06 00:21:44;;;;;;;9.18;1.80;;;;;;;;;;5080190;28;20048;-73
2022/03/06 00:24:10;;;;;;;9.15;1.92;;;;;;;;;;5079317;28;20067;-73
2022/03/06 00:26:37;;;;;;;9.45;2.25;;;;;;;;;;5054626;28;20061;-74
2022/03/06 00:29:03;;;;;;;6.72;1.50;;;;;;;;;;5079189;28;20066;-73
2022/03/06 00:31:30;;;;;;;7.18;1.70;;;;;;;;;;5080403;28;20052;-72
2022/03/06 00:33:56;;;;;;;6.05;1.55;;;;;;;;;;5076622;28;20108;-73
2022/03/06 00:36:22;;;;;;;4.90;1.50;;;;;;;;;;5075361;28;20055;-73
2022/03/06 00:38:48;;;;;;;4.57;1.38;;;;;;;;;;5080074;28;20113;-74
2022/03/06 00:41:15;;;;;;;3.45;1.00;;;;;;;;;;5081312;28;20051;-73
2022/03/06 00:43:42;;;;;;;3.80;1.02;;;;;;;;;;5080240;28;20044;-73
2022/03/06 00:46:08;;;;;;;8.13;1.30;;;;;;;;;;5075950;28;20238;-73
2022/03/06 00:48:34;;;;;;;4.57;1.23;;;;;;;;;;5076204;28;20477;-72
2022/03/06 00:51:00;;;;;;;5.50;1.10;;;;;;;;;;5077929;28;21312;-76
2022/03/06 00:53:26;;;;;;;2.67;1.00;;;;;;;;;;5079060;28;20047;-74
2022/03/06 00:55:52;;;;;;;4.35;1.52;;;;;;;;;;5079663;28;20086;-73
2022/03/06 00:58:18;;;;;;;2.33;1.17;;;;;;;;;;5074238;28;20489;-74
2022/03/06 01:00:47;;;;;;;4.57;1.27;;;;;;;;;;5079928;28;20792;-75
2022/03/06 01:03:19;;;;;;;2.85;1.20;;;;;;;;;;5079926;28;20070;-73
2022/03/06 01:05:47;;;;;;;3.38;1.30;;;;;;;;;;5078154;28;20103;-74
2022/03/06 01:08:13;;;;;;;2.53;1.15;;;;;;;;;;5072884;28;20148;-73
2022/03/06 01:10:41;;;;;;;5.40;0.93;;;;;;;;;;5078264;28;20516;-73
2022/03/06 01:13:08;;;;;;;3.35;1.30;;;;;;;;;;5078720;28;20052;-75
2022/03/06 01:15:35;;;;;;;5.10;1.30;;;;;;;;;;5077038;28;20492;-72
2022/03/06 01:18:01;;;;;;;4.25;1.40;;;;;;;;;;5073202;28;20050;-73
2022/03/06 01:20:27;;;;;;;3.40;1.40;;;;;;;;;;5078597;28;20152;-73
2022/03/06 01:22:54;;;;;;;6.15;1.60;;;;;;;;;;5078965;28;20051;-73
2022/03/06 01:25:20;;;;;;;6.63;1.48;;;;;;;;;;5078612;28;20117;-74
2022/03/06 01:27:47;;;;;;;2.38;1.42;;;;;;;;;;5072414;28;20054;-75
2022/03/06 01:30:15;;;;;;;3.30;1.55;;;;;;;;;;5080204;28;20055;-72
2022/03/06 01:32:42;;;;;;;3.25;1.70;;;;;;;;;;5080221;28;20154;-74
2022/03/06 01:35:10;;;;;;;2.95;1.30;;;;;;;;;;5077143;28;20477;-74
2022/03/06 01:37:35;;;;;;;6.68;1.60;;;;;;;;;;5071520;28;20054;-73
2022/03/06 01:40:02;;;;;;;3.20;1.50;;;;;;;;;;5079981;28;20130;-72
2022/03/06 01:42:28;;;;;;;5.18;1.52;;;;;;;;;;5080724;28;20051;-74
2022/03/06 01:44:54;;;;;;;7.35;1.67;;;;;;;;;;5079912;28;20096;-76
2022/03/06 01:47:44;;;;;;;9.27;1.80;;;;;;;;;;5067509;28;20454;-74
2022/03/06 01:50:14;;;;;;;7.75;1.90;;;;;;;;;;5078111;28;20060;-75
2022/03/06 01:52:41;;;;;;;4.38;1.88;;;;;;;;;;5079583;28;20047;-72
2022/03/06 01:55:08;;;;;;;6.13;1.60;;;;;;;;;;5058264;28;20052;-72
2022/03/06 01:57:34;;;;;;;3.45;1.63;;;;;;;;;;5071697;28;20568;-71
2022/03/06 02:00:04;;;;;;;4.78;1.55;;;;;;;;;;5078328;28;20055;-72
2022/03/06 02:02:30;;;;;;;6.05;1.90;;;;;;;;;;5077876;28;20059;-72
2022/03/06 02:04:56;;;;;;;2.10;1.33;;;;;;;;;;5075540;28;20055;-74
2022/03/06 02:07:22;;;;;;;3.92;2.03;;;;;;;;;;5071722;28;20439;-76
2022/03/06 02:09:48;;;;;;;4.97;1.67;;;;;;;;;;5078473;28;20314;-75
2022/03/06 02:12:23;;;;;;;4.55;1.80;;;;;;;;;;5079125;28;20900;-73
2022/03/06 02:14:50;;;;;;;5.43;1.80;;;;;;;;;;5059637;28;20097;-73
2022/03/06 02:17:17;;;;;;;3.72;1.90;;;;;;;;;;5070720;28;20055;-72
2022/03/06 02:19:55;;;;;;;3.20;1.85;;;;;;;;;;5078453;28;20043;-72
2022/03/06 02:22:27;;;;;;;3.50;2.10;;;;;;;;;;5078233;28;20056;-73
2022/03/06 02:24:54;;;;;;;5.47;2.58;;;;;;;;;;5075943;28;20678;-71
2022/03/06 02:27:20;;;;;;;4.55;2.08;;;;;;;;;;5070122;28;20047;-73
2022/03/06 02:29:47;;;;;;;2.80;1.90;;;;;;;;;;5078180;28;20120;-72
2022/03/06 02:32:16;;;;;;;4.20;2.08;;;;;;;;;;5075852;28;20416;-72
2022/03/06 02:34:44;;;;;;;3.10;2.15;;;;;;;;;;5057601;28;21366;-72
2022/03/06 02:37:11;;;;;;;4.07;2.00;;;;;;;;;;5068575;28;20528;-73
2022/03/06 02:39:37;;;;;;;4.38;2.10;;;;;;;;;;5076007;28;20113;-72
2022/03/06 02:42:04;;;;;;;3.25;1.92;;;;;;;;;;5077327;28;20063;-72
2022/03/06 02:44:30;;;;;;;3.60;2.10;;;;;;;;;;5074256;28;20741;-73
2022/03/06 02:46:57;;;;;;;3.33;2.20;;;;;;;;;;5066848;28;20439;-73
2022/03/06 02:49:23;;;;;;;4.22;2.20;;;;;;;;;;5077713;28;20052;-73
2022/03/06 02:51:50;;;;;;;3.83;2.30;;;;;;;;;;5077114;28;20059;-72
2022/03/06 02:54:17;;;;;;;6.18;2.30;;;;;;;;;;5076470;28;20130;-72
2022/03/06 02:56:44;;;;;;;4.20;2.33;;;;;;;;;;5068554;28;20052;-71
2022/03/06 02:59:10;;;;;;;3.15;2.17;;;;;;;;;;5077830;28;20461;-75
2022/03/06 03:01:40;;;;;;;4.20;2.38;;;;;;;;;;5077379;28;20524;-72
2022/03/06 03:04:10;;;;;;;8.65;2.40;;;;;;;;;;5076122;28;20544;-71
2022/03/06 03:06:36;;;;;;;3.55;2.38;;;;;;;;;;5067381;28;20055;-72
2022/03/06 03:09:07;;;;;;;4.28;2.20;;;;;;;;;;5076921;28;20043;-72
2022/03/06 03:11:34;;;;;;;4.43;2.58;;;;;;;;;;5076946;28;20062;-71
2022/03/06 03:14:01;;;;;;;4.22;2.45;;;;;;;;;;5056736;28;20047;-73
2022/03/06 03:16:28;;;;;;;4.57;2.70;;;;;;;;;;5070524;28;20180;-71
2022/03/06 03:18:54;;;;;;;3.20;2.20;;;;;;;;;;5078087;28;20075;-72
2022/03/06 03:21:20;;;;;;;3.90;2.45;;;;;;;;;;5076897;28;20059;-72
2022/03/06 03:23:45;;;;;;;5.68;2.97;;;;;;;;;;5078223;28;20504;-71
2022/03/06 03:26:12;;;;;;;3.83;2.45;;;;;;;;;;5072861;28;20048;-72
2022/03/06 03:28:37;;;;;;;4.18;2.33;;;;;;;;;;5073042;28;20054;-73
2022/03/06 03:31:03;;;;;;;4.15;2.50;;;;;;;;;;5076909;28;20074;-74
2022/03/06 03:33:29;;;;;;;3.63;2.30;;;;;;;;;;5076610;28;20100;-74
2022/03/06 03:35:56;;;;;;;7.22;2.85;;;;;;;;;;5073216;28;20063;-75
2022/03/06 03:38:22;;;;;;;4.32;2.20;;;;;;;;;;5073759;28;20150;-71
2022/03/06 03:40:48;;;;;;;2.95;2.30;;;;;;;;;;5076907;28;20077;-74
2022/03/06 03:43:14;;;;;;;4.43;2.40;;;;;;;;;;5078884;28;20059;-72
2022/03/06 03:45:40;;;;;;;3.00;1.95;;;;;;;;;;5073509;28;20557;-74
2022/03/06 03:48:06;;;;;;;4.47;2.65;;;;;;;;;;5069900;28;20051;-74
2022/03/06 03:50:32;;;;;;;5.80;2.72;;;;;;;;;;5075545;28;20051;-73
2022/03/06 03:52:58;;;;;;;3.75;2.20;;;;;;;;;;5077016;28;20055;-73
2022/03/06 03:55:24;;;;;;;4.43;2.10;;;;;;;;;;5075720;28;20035;-71
2022/03/06 03:57:50;;;;;;;5.13;2.30;;;;;;;;;;5070071;28;20055;-72
2022/03/06 04:00:16;;;;;;;4.75;2.08;;;;;;;;;;5077100;28;20044;-72
2022/03/06 04:02:41;;;;;;;3.33;2.10;;;;;;;;;;5075339;28;20052;-72
2022/03/06 04:05:08;;;;;;;3.47;2.60;;;;;;;;;;5075125;28;20047;-71
2022/03/06 04:07:35;;;;;;;4.53;2.20;;;;;;;;;;5068994;28;20138;-72
2022/03/06 04:10:01;;;;;;;4.95;2.45;;;;;;;;;;5077203;28;20051;-73
2022/03/06 04:12:27;;;;;;;3.55;2.13;;;;;;;;;;5079520;28;20586;-73
2022/03/06 04:14:53;;;;;;;5.07;2.50;;;;;;;;;;5080112;28;20063;-71
2022/03/06 04:17:19;;;;;;;5.25;2.42;;;;;;;;;;5072619;28;20059;-71
2022/03/06 04:19:45;;;;;;;4.15;2.58;;;;;;;;;;5079552;28;20511;-71
2022/03/06 04:22:10;;;;;;;2.92;2.15;;;;;;;;;;5078080;28;20048;-73
2022/03/06 04:24:36;;;;;;;5.55;2.85;;;;;;;;;;5076578;28;20059;-72
2022/03/06 04:27:03;;;;;;;3.88;2.60;;;;;;;;;;5076672;28;20152;-74
2022/03/06 04:29:30;;;;;;;2.83;2.08;;;;;;;;;;5080185;28;20048;-74
2022/03/06 04:31:56;;;;;;;4.20;2.45;;;;;;;;;;5078733;28;20055;-74
2022/03/06 04:34:22;;;;;;;6.60;3.40;;;;;;;;;;5080395;28;20059;-71
2022/03/06 04:36:48;;;;;;;4.38;2.25;;;;;;;;;;5075398;28;20759;-72
2022/03/06 04:39:14;;;;;;;3.92;2.50;;;;;;;;;;5078519;28;20882;-72
2022/03/06 04:41:40;;;;;;;5.30;2.47;;;;;;;;;;5078923;28;20671;-72
2022/03/06 04:44:06;;;;;;;3.85;2.50;;;;;;;;;;5078657;28;20082;-71
2022/03/06 04:46:33;;;;;;;3.63;2.30;;;;;;;;;;5073723;28;20122;-73
2022/03/06 04:48:59;;;;;;;3.63;2.20;;;;;;;;;;5079824;28;20134;-72
2022/03/06 04:51:25;;;;;;;2.67;2.00;;;;;;;;;;5077730;28;20058;-73
2022/03/06 04:53:51;;;;;;;4.78;2.47;;;;;;;;;;5079306;28;20070;-72
2022/03/06 04:56:17;;;;;;;3.35;2.10;;;;;;;;;;5074404;28;20055;-72
2022/03/06 04:58:43;;;;;;;5.13;2.00;;;;;;;;;;5078549;28;20391;-72
2022/03/06 05:01:09;;;;;;;4.22;2.30;;;;;;;;;;5077760;28;20175;-71
2022/03/06 05:03:35;;;;;;;2.53;2.00;;;;;;;;;;5078897;28;20054;-71
2022/03/06 05:06:01;;;;;;;5.35;2.47;;;;;;;;;;5057437;28;20044;-72
2022/03/06 05:08:27;;;;;;;3.50;2.15;;;;;;;;;;5079560;28;20062;-71
2022/03/06 05:10:55;;;;;;;3.08;2.30;;;;;;;;;;5060306;28;20066;-71
2022/03/06 05:13:22;;;;;;;4.38;2.20;;;;;;;;;;5080361;28;20055;-72
2022/03/06 05:15:48;;;;;;;4.07;2.15;;;;;;;;;;5078968;28;20716;-73
2022/03/06 05:18:14;;;;;;;3.30;1.80;;;;;;;;;;5075056;28;20448;-71
2022/03/06 05:20:40;;;;;;;2.08;1.73;;;;;;;;;;5077348;28;20102;-72
2022/03/06 05:23:06;;;;;;;5.13;1.90;;;;;;;;;;5079660;28;20051;-72
2022/03/06 05:25:32;;;;;;;3.88;1.98;;;;;;;;;;5076395;28;20054;-72
2022/03/06 05:27:58;;;;;;;6.78;2.72;;;;;;;;;;5075092;28;20079;-71
2022/03/06 05:30:24;;;;;;;3.55;2.10;;;;;;;;;;5080165;28;20104;-72
2022/03/06 05:32:50;;;;;;;2.58;2.00;;;;;;;;;;5079081;28;20505;-71
2022/03/06 05:35:16;;;;;;;2.92;2.13;;;;;;;;;;5075053;28;20269;-72
2022/03/06 05:37:42;;;;;;;4.28;2.10;;;;;;;;;;5073539;28;20044;-71
2022/03/06 05:40:08;;;;;;;5.35;1.70;;;;;;;;;;5077445;28;20469;-71
2022/03/06 05:42:34;;;;;;;3.60;1.88;;;;;;;;;;5077058;28;20055;-71
2022/03/06 05:45:00;;;;;;;3.10;1.70;;;;;;;;;;5076501;28;20704;-71
2022/03/06 05:47:26;;;;;;;7.50;2.05;;;;;;;;;;5056595;28;20280;-71
2022/03/06 05:49:52;;;;;;;3.10;1.90;;;;;;;;;;5078366;28;20424;-72
2022/03/06 05:52:18;;;;;;;2.25;1.80;;;;;;;;;;5077074;28;20064;-73
2022/03/06 05:54:44;;;;;;;3.35;1.70;;;;;;;;;;5076407;28;20043;-72
2022/03/06 05:57:10;;;;;;;2.78;1.83;;;;;;;;;;5074996;28;21366;-72
2022/03/06 05:59:36;;;;;;;4.25;1.80;;;;;;;;;;5078435;28;20072;-71
2022/03/06 06:02:02;;;;;;;4.80;1.80;;;;;;;;;;5075376;28;20496;-71
2022/03/06 06:04:28;;;;;;;4.45;1.98;;;;;;;;;;5078205;28;20059;-72
2022/03/06 06:06:54;;;;;;;5.88;2.10;;;;;;;;;;5056854;28;20056;-70
2022/03/06 06:09:20;;;;;;;3.80;2.30;;;;;;;;;;5076752;28;20363;-73
2022/03/06 06:11:46;;;;;;;6.72;2.65;;;;;;;;;;5076595;28;20844;-71
2022/03/06 06:14:12;;;;;;;3.80;2.03;;;;;;;;;;5074710;28;20699;-72
2022/03/06 06:16:38;;;;;;;3.58;2.20;;;;;;;;;;5073881;28;20072;-72
2022/03/06 06:19:04;;;;;;;4.47;2.63;;;;;;;;;;5079002;28;20503;-72
2022/03/06 06:21:29;;;;;;;2.97;2.00;;;;;;;;;;5076562;28;20056;-72
2022/03/06 06:23:55;;;;;;;3.50;2.30;;;;;;;;;;5074971;28;20059;-71
2022/03/06 06:26:24;;;;;;;3.38;1.95;;;;;;;;;;5072640;28;20052;-72
2022/03/06 06:28:55;;;;;;;2.85;1.80;;;;;;;;;;5077237;28;20736;-73
2022/03/06 06:31:23;;;;;;;3.92;1.80;;;;;;;;;;5077032;28;20059;-72
2022/03/06 06:33:50;;;;;;;3.15;1.88;;;;;;;;;;5075765;28;20904;-72
2022/03/06 06:36:17;;;;;;;6.53;2.30;;;;;;;;;;5072784;28;20071;-73
2022/03/06 06:38:43;;;;;;;7.30;2.00;;;;;;;;;;5075971;28;20050;-72
2022/03/06 06:41:09;;;;;;;5.28;1.92;;;;;;;;;;5075796;28;20063;-73
2022/03/06 06:43:35;;;;;;;3.35;1.65;;;;;;;;;;5074985;28;20044;-73
2022/03/06 06:46:01;;;;;;;6.28;1.60;;;;;;;;;;5074238;28;20047;-71
2022/03/06 06:48:27;;;;;;;3.88;1.88;;;;;;;;;;5074884;28;20105;-73
2022/03/06 06:50:53;;;;;;;4.85;1.65;;;;;;;;;;5075659;28;20056;-73
2022/03/06 06:53:19;;;;;;;8.52;1.98;;;;;;;;;;5076775;28;20052;-73
2022/03/06 06:55:45;;;;;;;3.33;1.60;;;;;;;;;;5075141;28;20560;-74
2022/03/06 06:58:11;;;;;;;3.83;1.58;;;;;;;;;;5071400;28;20074;-72
2022/03/06 07:00:37;;;;;;;7.30;1.80;;;;;;;;;;5074057;28;20044;-72
2022/03/06 07:03:03;;;;;;;4.55;2.00;;;;;;;;;;5057352;28;20055;-72
2022/03/06 07:05:29;;;;;;;4.03;1.70;;;;;;;;;;5074690;28;20040;-72
2022/03/06 07:07:55;;;;;;;3.30;1.58;;;;;;;;;;5072263;28;20065;-72
2022/03/06 07:10:21;;;;;;;3.03;1.52;;;;;;;;;;5072637;28;20523;-72
2022/03/06 07:12:51;;;;;;;3.17;1.42;;;;;;;;;;5075233;28;20727;-72
2022/03/06 07:15:17;;;;;;;3.63;1.50;;;;;;;;;;5072152;28;20096;-71
2022/03/06 07:17:43;;;;;;;3.85;1.52;;;;;;;;;;5072928;28;20707;-72
2022/03/06 07:20:09;;;;;;;3.30;1.70;;;;;;;;;;5073557;28;20369;-72
2022/03/06 07:22:36;;;;;;;3.15;1.55;;;;;;;;;;5076028;28;20093;-72
2022/03/06 07:25:03;;;;;;;3.67;1.60;;;;;;;;;;5069531;28;20145;-72
2022/03/06 07:27:29;;;;;;;6.13;1.60;;;;;;;;;;5073612;28;20071;-71
2022/03/06 07:29:56;;;;;;;4.65;1.50;;;;;;;;;;5076092;28;20136;-72
2022/03/06 07:32:23;;;;;;;4.80;2.15;;;;;;;;;;5076576;28;20044;-71
2022/03/06 07:34:49;;;;;;;4.63;1.60;;;;;;;;;;5075388;28;20050;-72
2022/03/06 07:37:15;;;;;;;2.60;1.85;;;;;;;;;;5071930;28;20636;-73
2022/03/06 07:39:42;;;;;;;2.70;1.48;;;;;;;;;;5058641;28;20040;-72
2022/03/06 07:42:07;;;;;;;3.67;1.50;;;;;;;;;;5076247;28;20039;-74
2022/03/06 07:44:34;;;;;;;3.60;1.65;;;;;;;;;;5077916;28;20077;-72
2022/03/06 07:47:00;;;;;;;4.30;1.70;;;;;;;;;;5073701;28;20066;-73
2022/03/06 07:49:26;;;;;;;3.72;1.50;;;;;;;;;;5081485;28;20881;-73
2022/03/06 07:51:52;;;;;;;3.22;1.70;;;;;;;;;;5079839;28;20048;-73
2022/03/06 07:54:18;;;;;;;4.07;1.60;;;;;;;;;;5078536;28;20054;-72
2022/03/06 07:56:45;;;;;;;3.30;1.50;;;;;;;;;;5074521;27;20469;-73
2022/03/06 07:59:11;;;;;;;4.65;2.75;;;;;;;;;;5077517;28;20139;-73
2022/03/06 08:01:37;;;;;;;4.65;1.65;;;;;;;;;;5076208;28;20055;-73
2022/03/06 08:04:04;;;;;;;4.07;1.95;;;;;;;;;;5080373;28;20062;-72
2022/03/06 08:06:30;;;;;;;4.30;1.50;;;;;;;;;;5067592;28;20047;-74
2022/03/06 08:08:56;;;;;;;2.65;1.30;;;;;;;;;;5056671;28;20067;-74
2022/03/06 08:11:22;;;;;;;4.43;1.80;;;;;;;;;;5077915;28;20718;-73
2022/03/06 08:13:48;;;;;;;3.15;1.30;;;;;;;;;;5057994;28;20058;-72
2022/03/06 08:16:14;;;;;;;5.32;1.73;;;;;;;;;;5074955;28;20255;-73
2022/03/06 08:18:40;;;;;;;2.92;1.77;;;;;;;;;;5076791;28;20051;-74
2022/03/06 08:21:06;;;;;;;4.60;1.70;;;;;;;;;;5075940;28;20055;-73
2022/03/06 08:23:32;;;;;;;13.32;2.10;;;;;;;;;;5078038;28;20051;-74
2022/03/06 08:25:58;;;;;;;7.45;1.80;;;;;;;;;;5079389;28;20469;-75
2022/03/06 08:28:24;;;;;;;3.88;1.83;;;;;;;;;;5062306;28;20051;-73
2022/03/06 08:30:50;;;;;;;2.90;1.50;;;;;;;;;;5086741;28;20161;-81
2022/03/06 08:33:16;;;;;;;4.93;1.50;;;;;;;;;;5070288;28;20055;-79
2022/03/06 08:35:41;;;;;;;3.20;1.73;;;;;;;;;;5084434;28;20425;-76
2022/03/06 08:38:08;;;;;;;4.95;1.52;;;;;;;;;;5075285;28;20047;-75
2022/03/06 08:40:33;;;;;;;4.88;1.60;;;;;;;;;;5078880;28;20043;-74
2022/03/06 08:43:00;;;;;;;6.40;1.90;;;;;;;;;;5082779;28;20366;-76
2022/03/06 08:45:26;;;;;;;2.85;1.70;;;;;;;;;;5079519;28;20055;-75
2022/03/06 08:47:52;;;;;;;5.65;1.92;;;;;;;;;;5075674;28;20127;-75
2022/03/06 08:50:17;;;;;;;2.58;1.65;;;;;;;;;;5077676;28;20651;-75
2022/03/06 08:52:44;;;;;;;5.00;2.00;;;;;;;;;;5079175;28;20048;-76
2022/03/06 08:55:09;;;;;;;6.50;2.00;;;;;;;;;;5076055;28;20130;-75
2022/03/06 08:57:36;;;;;;;5.68;1.77;;;;;;;;;;5073304;28;20135;-76
2022/03/06 09:00:05;;;;;;;6.80;2.03;;;;;;;;;;5080251;28;20059;-75
2022/03/06 09:02:32;;;;;;;8.63;2.17;;;;;;;;;;5076452;28;20056;-75
2022/03/06 09:04:58;;;;;;;9.98;2.00;;;;;;;;;;5057264;28;20591;-76
2022/03/06 09:07:24;;;;;;;4.57;2.33;;;;;;;;;;5070189;28;20079;-76
2022/03/06 09:09:50;;;;;;;5.72;2.00;;;;;;;;;;5079230;28;20124;-74
2022/03/06 09:12:16;;;;;;;7.45;2.10;;;;;;;;;;5078134;28;20051;-76
2022/03/06 09:14:41;;;;;;;9.18;1.98;;;;;;;;;;5074163;28;20314;-75
2022/03/06 09:17:09;;;;;;;4.80;2.13;;;;;;;;;;5074184;28;20765;-76
2022/03/06 09:19:35;;;;;;;8.57;3.33;;;;;;;;;;5080171;28;20096;-76
2022/03/06 09:22:02;;;;;;;10.00;2.45;;;;;;;;;;5078629;28;20056;-74
2022/03/06 09:24:27;;;;;;;3.90;2.50;;;;;;;;;;5076529;28;20063;-77
2022/03/06 09:26:53;;;;;;;6.97;2.63;;;;;;;;;;5091639;27;20502;-76
2022/03/06 09:29:19;;;;;;;7.25;2.83;;;;;;;;;;5080310;28;20048;-76
2022/03/06 09:31:45;;;;;;;7.82;2.53;;;;;;;;;;5080591;28;20217;-76
2022/03/06 09:34:11;;;;;;;10.38;2.53;;;;;;;;;;5078831;28;20650;-76
2022/03/06 09:36:37;;;;;;;10.70;2.90;;;;;;;;;;5077253;28;20051;-75
2022/03/06 09:39:05;;;;;;;6.82;2.60;;;;;;;;;;5081869;28;20432;-75
2022/03/06 09:41:34;;;;;;;4.63;2.38;;;;;;;;;;5086262;28;20390;-75
2022/03/06 09:44:03;;;;;;;7.60;3.05;;;;;;;;;;5083338;28;20065;-77
2022/03/06 09:46:29;;;;;;;8.43;2.92;;;;;;;;;;5061047;28;20059;-74
2022/03/06 09:48:55;;;;;;;8.35;2.78;;;;;;;;;;5081207;28;20950;-75
2022/03/06 09:51:21;;;;;;;4.55;2.17;;;;;;;;;;5079481;28;20135;-77
2022/03/06 09:53:48;;;;;;;11.25;2.50;;;;;;;;;;5075926;28;20863;-73
2022/03/06 09:56:13;;;;;;;7.38;2.35;;;;;;;;;;5076952;28;20574;-75
2022/03/06 09:58:39;;;;;;;6.05;2.17;;;;;;;;;;5076413;28;20058;-74
2022/03/06 10:01:05;;;;;;;9.80;2.13;;;;;;;;;;5067646;28;20048;-73
2022/03/06 10:03:37;;;;;;;8.00;2.20;;;;;;;;;;5075610;28;20067;-74
2022/03/06 10:06:07;;;;;;;7.03;2.20;;;;;;;;;;5075157;28;20044;-74
2022/03/06 10:08:34;;;;;;;5.75;2.65;;;;;;;;;;5075035;28;20043;-75
2022/03/06 10:11:11;;;;;;;8.98;2.22;;;;;;;;;;5059788;28;20083;-75
2022/03/06 10:13:42;;;;;;;6.90;1.90;;;;;;;;;;5078856;28;20090;-75
2022/03/06 10:16:19;;;;;;;6.32;2.10;;;;;;;;;;5068397;28;20048;-76
2022/03/06 10:18:51;;;;;;;7.68;2.47;;;;;;;;;;5076793;28;20051;-71
2022/03/06 10:21:20;;;;;;;9.70;2.15;;;;;;;;;;5077547;28;20047;-74
2022/03/06 10:23:57;;;;;;;5.95;2.03;;;;;;;;;;5076286;28;20051;-73
2022/03/06 10:26:25;;;;;;;6.50;1.73;;;;;;;;;;5072501;28;20047;-72
2022/03/06 10:28:57;;;;;;;7.60;1.88;;;;;;;;;;5077912;28;20518;-75
2022/03/06 10:31:25;;;;;;;8.18;2.30;;;;;;;;;;5077215;28;20159;-75
2022/03/06 10:34:05;;;;;;;8.18;2.90;;;;;;;;;;5076792;28;20552;-71
2022/03/06 10:36:33;;;;;;;10.32;2.90;;;;;;;;;;5073667;28;21468;-73
2022/03/06 10:39:00;;;;;;;5.80;2.08;;;;;;;;;;5078376;28;20052;-75
2022/03/06 10:41:35;;;;;;;6.65;2.50;;;;;;;;;;5059857;28;21160;-74
2022/03/06 10:44:02;;;;;;;12.50;2.00;;;;;;;;;;5079264;28;20089;-72
2022/03/06 10:46:33;;;;;;;6.18;1.88;;;;;;;;;;5075220;28;20508;-73
2022/03/06 10:49:02;;;;;;;6.88;2.33;;;;;;;;;;5076037;28;20112;-73
2022/03/06 10:51:29;;;;;;;5.00;2.17;;;;;;;;;;5078296;28;20130;-77
2022/03/06 10:54:00;;;;;;;8.38;2.35;;;;;;;;;;5077329;28;20050;-72
2022/03/06 10:56:27;;;;;;;6.43;2.00;;;;;;;;;;5072334;28;20645;-73
2022/03/06 10:58:56;;;;;;;5.93;2.67;;;;;;;;;;5059872;28;20716;-73
2022/03/06 11:01:23;;;;;;;9.40;2.25;;;;;;;;;;5078103;28;20051;-73
2022/03/06 11:03:53;;;;;;;8.25;2.20;;;;;;;;;;5076249;28;20400;-75
2022/03/06 11:06:20;;;;;;;7.13;2.40;;;;;;;;;;5070507;28;20680;-72
2022/03/06 11:08:46;;;;;;;13.60;2.30;;;;;;;;;;5077637;28;20051;-73
2022/03/06 11:11:14;;;;;;;6.57;1.88;;;;;;;;;;5076192;28;20051;-72
2022/03/06 11:13:39;;;;;;;7.22;2.22;;;;;;;;;;5075974;28;20051;-76
2022/03/06 11:16:06;;;;;;;7.55;2.22;;;;;;;;;;5074167;28;20125;-76
2022/03/06 11:18:33;;;;;;;9.20;2.80;;;;;;;;;;5079489;28;20045;-74
2022/03/06 11:21:01;;;;;;;8.07;2.03;;;;;;;;;;5081635;28;21077;-73
2022/03/06 11:23:42;;;;;;;9.35;2.15;;;;;;;;;;5080864;28;20046;-74
2022/03/06 11:26:16;;;;;;;6.10;2.03;;;;;;;;;;5078230;28;20051;-76
2022/03/06 11:29:03;;;;;;;8.10;2.72;;;;;;;;;;5082296;28;20040;-76
2022/03/06 11:31:46;;;;;;;6.70;2.42;;;;;;;;;;5081967;28;20043;-76
2022/03/06 11:34:22;;;;;;;11.57;2.85;;;;;;;;;;5079385;28;20047;-73
2022/03/06 11:36:49;;;;;;;9.43;2.60;;;;;;;;;;5073480;28;20055;-72
2022/03/06 11:39:35;;;;;;;6.20;2.42;;;;;;;;;;5076553;28;20055;-74
2022/03/06 11:42:04;;;;;;;11.50;3.63;;;;;;;;;;5077815;28;20047;-73
2022/03/06 11:44:34;;;;;;;13.25;3.17;;;;;;;;;;5079593;28;20047;-77
2022/03/06 11:47:00;;;;;;;8.43;3.03;;;;;;;;;;5074663;28;20159;-75
2022/03/06 11:49:34;;;;;;;11.02;2.90;;;;;;;;;;5083065;28;20051;-74
2022/03/06 11:52:00;;;;;;;7.20;2.58;;;;;;;;;;5081603;28;20117;-74
2022/03/06 11:54:42;;;;;;;6.68;2.40;;;;;;;;;;5079072;28;20070;-71
2022/03/06 11:57:08;;;;;;;11.70;3.08;;;;;;;;;;5078500;27;20408;-72
2022/03/06 11:59:35;;;;;;;10.07;2.58;;;;;;;;;;5082911;28;20085;-75
2022/03/06 12:02:15;;;;;;;8.57;2.50;;;;;;;;;;5083091;28;20469;-75
2022/03/06 12:04:45;;;;;;;7.57;2.47;;;;;;;;;;5078849;28;20066;-74
2022/03/06 12:07:12;;;;;;;7.78;2.50;;;;;;;;;;5079782;28;20058;-72
2022/03/06 12:09:47;;;;;;;9.70;2.55;;;;;;;;;;5081667;28;20040;-75
2022/03/06 12:12:18;;;;;;;11.25;2.88;;;;;;;;;;5082590;28;20060;-72
2022/03/06 12:14:53;;;;;;;8.88;2.33;;;;;;;;;;5073645;28;20496;-72
2022/03/06 12:17:22;;;;;;;9.73;2.80;;;;;;;;;;5072807;28;21021;-74
2022/03/06 12:19:51;;;;;;;9.10;2.60;;;;;;;;;;5079521;28;20595;-74
2022/03/06 12:22:21;;;;;;;13.55;2.60;;;;;;;;;;5079457;28;20054;-73
2022/03/06 12:25:09;;;;;;;8.40;2.55;;;;;;;;;;5076502;28;20119;-77
2022/03/06 12:27:38;;;;;;;7.28;2.30;;;;;;;;;;5075940;28;20044;-74
2022/03/06 12:30:06;;;;;;;6.57;2.10;;;;;;;;;;5078242;28;20060;-74
2022/03/06 12:32:33;;;;;;;8.55;2.15;;;;;;;;;;5078077;28;20388;-72
2022/03/06 12:35:04;;;;;;;10.52;2.20;;;;;;;;;;5070111;27;21548;-74
2022/03/06 12:37:37;;;;;;;9.93;2.33;;;;;;;;;;5076322;28;20047;-72
2022/03/06 12:40:14;;;;;;;9.20;1.98;;;;;;;;;;5079711;28;20115;-72
2022/03/06 12:42:42;;;;;;;12.05;2.58;;;;;;;;;;5080040;28;20508;-71
2022/03/06 12:45:14;;;;;;;14.00;2.50;;;;;;;;;;5076962;28;20090;-72
2022/03/06 12:47:41;;;;;;;9.25;2.35;;;;;;;;;;5075363;28;20044;-72
2022/03/06 12:50:15;;;;;;;9.02;2.53;;;;;;;;;;5079172;28;20047;-74
2022/03/06 12:52:41;;;;;;;12.55;2.53;;;;;;;;;;5080063;28;20521;-70
2022/03/06 12:55:16;;;;;;;11.45;2.38;;;;;;;;;;5077863;27;20156;-75
2022/03/06 12:57:45;;;;;;;11.43;2.80;;;;;;;;;;5075971;28;20428;-72
2022/03/06 13:00:18;;;;;;;8.65;3.13;;;;;;;;;;5079723;28;20043;-76
2022/03/06 13:02:49;;;;;;;7.80;1.88;;;;;;;;;;5077564;28;20043;-71
2022/03/06 13:05:16;;;;;;;4.95;1.73;;;;;;;;;;5076683;28;20102;-72
2022/03/06 13:07:43;;;;;;;4.43;1.40;;;;;;;;;;5076886;28;20488;-73
2022/03/06 13:10:12;;;;;;;10.20;1.83;;;;;;;;;;5060655;28;20164;-75
2022/03/06 13:12:43;;;;;;;8.55;1.52;;;;;;;;;;5080080;28;20039;-73
2022/03/06 13:15:12;;;;;;;5.80;1.52;;;;;;;;;;5075740;28;20044;-73
2022/03/06 13:17:38;;;;;;;4.57;1.23;;;;;;;;;;5054272;28;20048;-74
2022/03/06 13:20:05;;;;;;;5.97;1.50;;;;;;;;;;5079375;28;20058;-78
2022/03/06 13:22:31;;;;;;;5.35;1.60;;;;;;;;;;5081839;28;20071;-74
2022/03/06 13:24:59;;;;;;;6.85;1.95;;;;;;;;;;5077964;28;20594;-71
2022/03/06 13:27:30;;;;;;;4.95;1.80;;;;;;;;;;5077807;28;20059;-70
2022/03/06 13:30:13;;;;;;;8.18;2.17;;;;;;;;;;5081192;28;20056;-73
2022/03/06 13:32:53;;;;;;;8.73;2.17;;;;;;;;;;5079465;28;20459;-74
2022/03/06 13:35:38;;;;;;;8.18;1.95;;;;;;;;;;5073767;28;20793;-75
2022/03/06 13:38:24;;;;;;;8.18;1.90;;;;;;;;;;5058897;28;20071;-74
2022/03/06 13:40:54;;;;;;;10.57;2.28;;;;;;;;;;5076994;28;20055;-75
2022/03/06 13:43:35;;;;;;;9.15;2.20;;;;;;;;;;5078051;28;20676;-72
2022/03/06 13:46:01;;;;;;;10.38;2.45;;;;;;;;;;5077764;28;20438;-76
2022/03/06 13:48:34;;;;;;;6.43;2.08;;;;;;;;;;5060878;28;20836;-76
2022/03/06 13:51:00;;;;;;;7.00;1.98;;;;;;;;;;5079781;28;20052;-75
2022/03/06 13:53:29;;;;;;;9.15;2.17;;;;;;;;;;5079723;28;20721;-71
2022/03/06 13:55:58;;;;;;;7.60;2.10;;;;;;;;;;5057599;28;20103;-78
2022/03/06 13:58:36;;;;;;;9.95;2.40;;;;;;;;;;5077250;28;20950;-74
2022/03/06 14:01:03;;;;;;;10.80;2.72;;;;;;;;;;5079895;28;20440;-75
2022/03/06 14:03:34;;;;;;;9.48;2.70;;;;;;;;;;5079348;28;20443;-74
2022/03/06 14:06:03;;;;;;;11.75;2.70;;;;;;;;;;5057424;28;20587;-73
2022/03/06 14:08:49;;;;;;;11.35;2.42;;;;;;;;;;5071630;28;20055;-74
2022/03/06 14:11:30;;;;;;;10.77;2.30;;;;;;;;;;5078243;28;20051;-68
2022/03/06 14:13:58;;;;;;;10.98;1.73;;;;;;;;;;5078759;28;20787;-71
2022/03/06 14:16:27;;;;;;;4.03;1.40;;;;;;;;;;5041083;28;20058;-75
2022/03/06 14:18:57;;;;;;;12.43;1.90;;;;;;;;;;5080219;28;20054;-70
2022/03/06 14:21:29;;;;;;;11.43;1.60;;;;;;;;;;5075650;28;20097;-69
2022/03/06 14:24:00;;;;;;;6.93;1.60;;;;;;;;;;5059821;28;20139;-68
2022/03/06 14:26:29;;;;;;;5.68;1.60;;;;;;;;;;5076655;28;20572;-72
2022/03/06 14:28:56;;;;;;;9.75;1.83;;;;;;;;;;5077736;28;20047;-72
2022/03/06 14:31:22;;;;;;;8.65;1.73;;;;;;;;;;5080074;28;20063;-70
2022/03/06 14:33:48;;;;;;;8.55;1.63;;;;;;;;;;5077326;28;20056;-73
2022/03/06 14:36:15;;;;;;;9.18;2.00;;;;;;;;;;5074842;28;20043;-78
2022/03/06 14:38:41;;;;;;;11.75;1.50;;;;;;;;;;5077338;28;20531;-74
2022/03/06 14:41:08;;;;;;;6.15;1.70;;;;;;;;;;5076041;28;20040;-76
2022/03/06 14:43:35;;;;;;;18.38;3.90;;;;;;;;;;5077615;28;20086;-74
2022/03/06 14:46:04;;;;;;;11.00;2.42;;;;;;;;;;5055638;28;20159;-74